sensor_id;sensor_type;location;lat;lon;timestamp;pressure;altitude;pressure_sealevel;temperature;humidity
71504;BME280;59323;50.874;7.028;2023-05-01T00:00:59;101341.28;;;11.30;76.26
71504;BME280;59323;50.874;7.028;2023-05-01T00:03:25;101343.22;;;11.30;74.95
71504;BME280;59323;50.874;7.028;2023-05-01T00:05:50;101333.50;;;11.29;75.99
71504;BME280;59323;50.874;7.028;2023-05-01T00:08:16;101334.63;;;11.28;76.08
71504;BME280;59323;50.874;7.028;2023-05-01T00:10:41;101330.34;;;11.27;75.75
71504;BME280;59323;50.874;7.028;2023-05-01T00:13:07;101329.53;;;11.26;76.35
71504;BME280;59323;50.874;7.028;2023-05-01T00:15:34;101315.94;;;11.26;76.63
71504;BME280;59323;50.874;7.028;2023-05-01T00:17:59;101322.53;;;11.25;76.67
71504;BME280;59323;50.874;7.028;2023-05-01T00:20:28;101323.66;;;11.24;76.33
71504;BME280;59323;50.874;7.028;2023-05-01T00:22:54;101308.06;;;11.21;75.90
71504;BME280;59323;50.874;7.028;2023-05-01T00:25:19;101315.06;;;11.22;76.86
71504;BME280;59323;50.874;7.028;2023-05-01T00:27:45;101303.75;;;11.20;76.42
71504;BME280;59323;50.874;7.028;2023-05-01T00:30:11;101318.16;;;11.21;77.11
71504;BME280;59323;50.874;7.028;2023-05-01T00:32:36;101315.00;;;11.19;76.24
71504;BME280;59323;50.874;7.028;2023-05-01T00:35:03;101314.19;;;11.18;75.73
71504;BME280;59323;50.874;7.028;2023-05-01T00:37:28;101314.19;;;11.18;76.12
71504;BME280;59323;50.874;7.028;2023-05-01T00:39:53;101311.47;;;11.18;76.66
71504;BME280;59323;50.874;7.028;2023-05-01T00:42:19;101305.69;;;11.20;76.04
71504;BME280;59323;50.874;7.028;2023-05-01T00:44:44;101304.13;;;11.19;76.53
71504;BME280;59323;50.874;7.028;2023-05-01T00:47:09;101301.03;;;11.20;77.06
71504;BME280;59323;50.874;7.028;2023-05-01T00:49:35;101297.09;;;11.18;77.27
71504;BME280;59323;50.874;7.028;2023-05-01T00:52:00;101298.31;;;11.20;76.84
71504;BME280;59323;50.874;7.028;2023-05-01T00:54:26;101294.38;;;11.18;77.17
71504;BME280;59323;50.874;7.028;2023-05-01T00:56:52;101289.72;;;11.18;77.10
71504;BME280;59323;50.874;7.028;2023-05-01T00:59:18;101288.94;;;11.18;77.35
71504;BME280;59323;50.874;7.028;2023-05-01T01:01:43;101286.22;;;11.18;77.30
71504;BME280;59323;50.874;7.028;2023-05-01T01:04:08;101285.84;;;11.19;74.94
71504;BME280;59323;50.874;7.028;2023-05-01T01:07:00;101269.53;;;11.19;75.80
71504;BME280;59323;50.874;7.028;2023-05-01T01:09:54;101264.44;;;11.18;75.63
71504;BME280;59323;50.874;7.028;2023-05-01T01:15:20;101265.66;;;11.20;76.22
71504;BME280;59323;50.874;7.028;2023-05-01T01:17:51;101268.75;;;11.19;75.77
71504;BME280;59323;50.874;7.028;2023-05-01T01:23:03;101252.84;;;11.21;73.65
71504;BME280;59323;50.874;7.028;2023-05-01T01:28:38;101258.31;;;11.21;73.20
71504;BME280;59323;50.874;7.028;2023-05-01T01:31:29;101250.50;;;11.19;73.99
71504;BME280;59323;50.874;7.028;2023-05-01T01:34:08;101255.16;;;11.19;73.91
71504;BME280;59323;50.874;7.028;2023-05-01T01:36:50;101248.91;;;11.18;74.02
71504;BME280;59323;50.874;7.028;2023-05-01T01:39:39;101248.47;;;11.16;74.70
71504;BME280;59323;50.874;7.028;2023-05-01T01:42:14;101245.75;;;11.16;74.87
71504;BME280;59323;50.874;7.028;2023-05-01T01:44:54;101237.16;;;11.14;75.14
71504;BME280;59323;50.874;7.028;2023-05-01T01:47:24;101242.25;;;11.16;76.65
71504;BME280;59323;50.874;7.028;2023-05-01T01:49:53;101237.16;;;11.14;76.78
71504;BME280;59323;50.874;7.028;2023-05-01T01:52:21;101235.59;;;11.13;76.75
71504;BME280;59323;50.874;7.028;2023-05-01T01:54:50;101231.72;;;11.14;76.85
71504;BME280;59323;50.874;7.028;2023-05-01T01:57:18;101231.66;;;11.10;76.63
71504;BME280;59323;50.874;7.028;2023-05-01T01:59:46;101223.84;;;11.09;75.75
71504;BME280;59323;50.874;7.028;2023-05-01T02:02:14;101223.06;;;11.08;74.71
71504;BME280;59323;50.874;7.028;2023-05-01T02:04:41;101222.72;;;11.10;75.37
71504;BME280;59323;50.874;7.028;2023-05-01T02:07:09;101217.63;;;11.08;74.29
71504;BME280;59323;50.874;7.028;2023-05-01T02:09:37;101220.00;;;11.10;73.77
71504;BME280;59323;50.874;7.028;2023-05-01T02:12:05;101220.41;;;11.12;73.74
71504;BME280;59323;50.874;7.028;2023-05-01T02:14:32;101223.94;;;11.13;72.55
71504;BME280;59323;50.874;7.028;2023-05-01T02:16:58;101217.78;;;11.16;71.70
71504;BME280;59323;50.874;7.028;2023-05-01T02:19:24;101211.97;;;11.17;71.92
71504;BME280;59323;50.874;7.028;2023-05-01T02:21:52;101207.03;;;11.23;70.78
71504;BME280;59323;50.874;7.028;2023-05-01T02:24:20;101203.97;;;11.24;71.20
71504;BME280;59323;50.874;7.028;2023-05-01T02:26:53;101199.31;;;11.25;70.61
71504;BME280;59323;50.874;7.028;2023-05-01T02:29:19;101198.53;;;11.24;70.56
71504;BME280;59323;50.874;7.028;2023-05-01T02:31:45;101190.72;;;11.23;70.63
71504;BME280;59323;50.874;7.028;2023-05-01T02:34:10;101191.44;;;11.20;70.96
71504;BME280;59323;50.874;7.028;2023-05-01T02:36:36;101193.00;;;11.21;71.75
71504;BME280;59323;50.874;7.028;2023-05-01T02:39:02;101196.88;;;11.20;71.27
71504;BME280;59323;50.874;7.028;2023-05-01T02:41:28;101182.50;;;11.19;70.83
71504;BME280;59323;50.874;7.028;2023-05-01T02:44:00;101179.75;;;11.19;71.42
71504;BME280;59323;50.874;7.028;2023-05-01T02:46:29;101181.69;;;11.19;71.58
71504;BME280;59323;50.874;7.028;2023-05-01T02:48:56;101168.03;;;11.15;70.85
71504;BME280;59323;50.874;7.028;2023-05-01T02:51:24;101163.09;;;11.21;70.67
71504;BME280;59323;50.874;7.028;2023-05-01T02:53:52;101165.38;;;11.19;70.63
71504;BME280;59323;50.874;7.028;2023-05-01T02:56:18;101158.78;;;11.20;70.86
71504;BME280;59323;50.874;7.028;2023-05-01T02:58:44;101161.88;;;11.18;71.20
71504;BME280;59323;50.874;7.028;2023-05-01T03:01:09;101162.22;;;11.17;71.32
71504;BME280;59323;50.874;7.028;2023-05-01T03:03:35;101157.50;;;11.14;71.79
71504;BME280;59323;50.874;7.028;2023-05-01T03:06:01;101153.94;;;11.09;71.94
71504;BME280;59323;50.874;7.028;2023-05-01T03:08:27;101157.94;;;11.16;71.25
71504;BME280;59323;50.874;7.028;2023-05-01T03:10:52;101154.44;;;11.15;71.58
71504;BME280;59323;50.874;7.028;2023-05-01T03:13:18;101147.69;;;11.09;71.78
71504;BME280;59323;50.874;7.028;2023-05-01T03:15:43;101148.41;;;11.06;71.86
71504;BME280;59323;50.874;7.028;2023-05-01T03:18:09;101145.22;;;11.04;71.89
71504;BME280;59323;50.874;7.028;2023-05-01T03:20:34;101141.72;;;11.03;71.31
71504;BME280;59323;50.874;7.028;2023-05-01T03:22:59;101134.72;;;11.02;71.17
71504;BME280;59323;50.874;7.028;2023-05-01T03:25:25;101138.22;;;11.03;71.27
71504;BME280;59323;50.874;7.028;2023-05-01T03:27:50;101132.00;;;11.02;71.38
71504;BME280;59323;50.874;7.028;2023-05-01T03:30:15;101130.78;;;11.00;72.02
71504;BME280;59323;50.874;7.028;2023-05-01T03:32:41;101127.28;;;10.99;71.50
71504;BME280;59323;50.874;7.028;2023-05-01T03:35:06;101120.19;;;10.95;71.76
71504;BME280;59323;50.874;7.028;2023-05-01T03:37:32;101129.50;;;10.94;71.92
71504;BME280;59323;50.874;7.028;2023-05-01T03:39:58;101124.34;;;10.89;71.95
71504;BME280;59323;50.874;7.028;2023-05-01T03:42:23;101122.75;;;10.88;72.54
71504;BME280;59323;50.874;7.028;2023-05-01T03:44:49;101131.63;;;10.85;73.05
71504;BME280;59323;50.874;7.028;2023-05-01T03:47:14;101126.13;;;10.81;73.25
71504;BME280;59323;50.874;7.028;2023-05-01T03:49:40;101126.03;;;10.77;73.42
71504;BME280;59323;50.874;7.028;2023-05-01T03:52:07;101124.47;;;10.76;74.05
71504;BME280;59323;50.874;7.028;2023-05-01T03:54:33;101124.03;;;10.74;74.25
71504;BME280;59323;50.874;7.028;2023-05-01T03:56:58;101120.09;;;10.72;74.63
71504;BME280;59323;50.874;7.028;2023-05-01T03:59:25;101120.00;;;10.68;74.60
71504;BME280;59323;50.874;7.028;2023-05-01T04:01:51;101115.38;;;10.69;74.03
71504;BME280;59323;50.874;7.028;2023-05-01T04:04:16;101114.84;;;10.63;74.37
71504;BME280;59323;50.874;7.028;2023-05-01T04:06:42;101123.00;;;10.63;75.05
71504;BME280;59323;50.874;7.028;2023-05-01T04:09:07;101113.56;;;10.57;74.69
71504;BME280;59323;50.874;7.028;2023-05-01T04:11:33;101107.25;;;10.53;75.50
71504;BME280;59323;50.874;7.028;2023-05-01T04:13:58;101111.91;;;10.53;75.94
71504;BME280;59323;50.874;7.028;2023-05-01T04:16:23;101117.69;;;10.51;76.48
71504;BME280;59323;50.874;7.028;2023-05-01T04:18:49;101113.75;;;10.48;75.38
71504;BME280;59323;50.874;7.028;2023-05-01T04:21:15;101104.38;;;10.46;75.26
71504;BME280;59323;50.874;7.028;2023-05-01T04:23:42;101110.19;;;10.44;76.17
71504;BME280;59323;50.874;7.028;2023-05-01T04:26:07;101103.53;;;10.42;76.48
71504;BME280;59323;50.874;7.028;2023-05-01T04:28:33;101102.97;;;10.36;76.07
71504;BME280;59323;50.874;7.028;2023-05-01T04:30:58;101108.84;;;10.38;77.20
71504;BME280;59323;50.874;7.028;2023-05-01T04:33:24;101107.28;;;10.37;77.19
71504;BME280;59323;50.874;7.028;2023-05-01T04:35:49;101110.34;;;10.36;77.47
71504;BME280;59323;50.874;7.028;2023-05-01T04:38:15;101106.84;;;10.35;76.28
71504;BME280;59323;50.874;7.028;2023-05-01T04:40:40;101105.63;;;10.33;76.14
71504;BME280;59323;50.874;7.028;2023-05-01T04:43:05;101104.91;;;10.36;76.79
71504;BME280;59323;50.874;7.028;2023-05-01T04:45:31;101112.25;;;10.35;76.60
71504;BME280;59323;50.874;7.028;2023-05-01T04:47:56;101110.34;;;10.36;76.77
71504;BME280;59323;50.874;7.028;2023-05-01T04:50:21;101107.19;;;10.34;75.98
71504;BME280;59323;50.874;7.028;2023-05-01T04:52:47;101111.91;;;10.37;76.46
71504;BME280;59323;50.874;7.028;2023-05-01T04:55:12;101104.91;;;10.36;75.71
71504;BME280;59323;50.874;7.028;2023-05-01T04:57:37;101109.19;;;10.37;76.20
71504;BME280;59323;50.874;7.028;2023-05-01T05:00:03;101117.00;;;10.38;76.21
71504;BME280;59323;50.874;7.028;2023-05-01T05:02:29;101112.34;;;10.39;76.15
71504;BME280;59323;50.874;7.028;2023-05-01T05:04:54;101109.75;;;10.42;75.36
71504;BME280;59323;50.874;7.028;2023-05-01T05:07:21;101114.81;;;10.44;75.50
71504;BME280;59323;50.874;7.028;2023-05-01T05:09:46;101105.16;;;10.46;75.33
71504;BME280;59323;50.874;7.028;2023-05-01T05:12:11;101111.81;;;10.49;75.85
71504;BME280;59323;50.874;7.028;2023-05-01T05:14:39;101111.91;;;10.53;75.43
71504;BME280;59323;50.874;7.028;2023-05-01T05:17:04;101110.06;;;10.57;75.43
71504;BME280;59323;50.874;7.028;2023-05-01T05:19:30;101113.22;;;10.59;75.09
71504;BME280;59323;50.874;7.028;2023-05-01T05:21:55;101109.69;;;10.58;74.75
71504;BME280;59323;50.874;7.028;2023-05-01T05:24:21;101108.19;;;10.61;74.52
71504;BME280;59323;50.874;7.028;2023-05-01T05:26:46;101109.06;;;10.65;74.57
71504;BME280;59323;50.874;7.028;2023-05-01T05:29:12;101108.00;;;10.69;74.37
71504;BME280;59323;50.874;7.028;2023-05-01T05:31:37;101116.59;;;10.71;74.59
71504;BME280;59323;50.874;7.028;2023-05-01T05:34:03;101116.31;;;10.76;73.83
71504;BME280;59323;50.874;7.028;2023-05-01T05:36:28;101112.16;;;10.83;74.37
71504;BME280;59323;50.874;7.028;2023-05-01T05:38:54;101111.53;;;10.89;73.55
71504;BME280;59323;50.874;7.028;2023-05-01T05:41:19;101108.44;;;10.91;74.38
71504;BME280;59323;50.874;7.028;2023-05-01T05:43:45;101112.47;;;10.97;73.36
71504;BME280;59323;50.874;7.028;2023-05-01T05:46:11;101109.03;;;11.00;73.76
71504;BME280;59323;50.874;7.028;2023-05-01T05:48:36;101103.28;;;11.05;73.60
71504;BME280;59323;50.874;7.028;2023-05-01T05:51:01;101111.56;;;11.08;72.93
71504;BME280;59323;50.874;7.028;2023-05-01T05:53:27;101116.72;;;11.14;73.13
71504;BME280;59323;50.874;7.028;2023-05-01T05:55:52;101107.13;;;11.20;72.33
71504;BME280;59323;50.874;7.028;2023-05-01T05:58:17;101112.69;;;11.27;72.92
71504;BME280;59323;50.874;7.028;2023-05-01T06:00:48;101116.25;;;11.31;72.82
71504;BME280;59323;50.874;7.028;2023-05-01T06:03:14;101111.69;;;11.35;72.84
71504;BME280;59323;50.874;7.028;2023-05-01T06:05:41;101110.94;;;11.38;72.41
71504;BME280;59323;50.874;7.028;2023-05-01T06:08:07;101111.38;;;11.40;72.42
71504;BME280;59323;50.874;7.028;2023-05-01T06:10:34;101105.94;;;11.40;71.78
71504;BME280;59323;50.874;7.028;2023-05-01T06:13:00;101108.72;;;11.43;71.87
71504;BME280;59323;50.874;7.028;2023-05-01T06:15:25;101106.91;;;11.51;71.98
71504;BME280;59323;50.874;7.028;2023-05-01T06:17:51;101110.84;;;11.54;73.16
71504;BME280;59323;50.874;7.028;2023-05-01T06:20:16;101103.91;;;11.56;72.71
71504;BME280;59323;50.874;7.028;2023-05-01T06:22:42;101102.03;;;11.60;72.06
71504;BME280;59323;50.874;7.028;2023-05-01T06:25:07;101104.38;;;11.62;72.23
71504;BME280;59323;50.874;7.028;2023-05-01T06:27:33;101096.28;;;11.65;72.56
71504;BME280;59323;50.874;7.028;2023-05-01T06:29:58;101103.81;;;11.72;72.59
71504;BME280;59323;50.874;7.028;2023-05-01T06:32:23;101105.03;;;11.74;71.17
71504;BME280;59323;50.874;7.028;2023-05-01T06:34:49;101107.84;;;11.78;71.54
71504;BME280;59323;50.874;7.028;2023-05-01T06:37:14;101104.81;;;11.83;70.62
71504;BME280;59323;50.874;7.028;2023-05-01T06:39:40;101109.16;;;11.88;70.28
71504;BME280;59323;50.874;7.028;2023-05-01T06:42:05;101108.44;;;11.91;70.47
71504;BME280;59323;50.874;7.028;2023-05-01T06:44:32;101103.06;;;11.94;70.45
71504;BME280;59323;50.874;7.028;2023-05-01T06:46:57;101105.41;;;11.96;70.70
71504;BME280;59323;50.874;7.028;2023-05-01T06:49:22;101110.50;;;11.97;71.23
71504;BME280;59323;50.874;7.028;2023-05-01T06:51:48;101098.13;;;12.03;72.01
71504;BME280;59323;50.874;7.028;2023-05-01T06:54:13;101094.31;;;12.08;70.16
71504;BME280;59323;50.874;7.028;2023-05-01T06:56:39;101087.34;;;12.11;70.07
71504;BME280;59323;50.874;7.028;2023-05-01T06:59:04;101096.78;;;12.17;70.61
71504;BME280;59323;50.874;7.028;2023-05-01T07:01:30;101094.91;;;12.21;71.40
71504;BME280;59323;50.874;7.028;2023-05-01T07:03:55;101096.91;;;12.24;71.15
71504;BME280;59323;50.874;7.028;2023-05-01T07:06:20;101095.44;;;12.30;70.35
71504;BME280;59323;50.874;7.028;2023-05-01T07:08:46;101099.06;;;12.37;71.12
71504;BME280;59323;50.874;7.028;2023-05-01T07:11:11;101094.47;;;12.42;70.08
71504;BME280;59323;50.874;7.028;2023-05-01T07:13:37;101092.72;;;12.56;69.71
71504;BME280;59323;50.874;7.028;2023-05-01T07:16:02;101091.97;;;12.59;69.80
71504;BME280;59323;50.874;7.028;2023-05-01T07:18:27;101080.00;;;12.67;69.26
71504;BME280;59323;50.874;7.028;2023-05-01T07:20:53;101078.91;;;12.72;68.99
71504;BME280;59323;50.874;7.028;2023-05-01T07:23:19;101082.50;;;12.80;69.00
71504;BME280;59323;50.874;7.028;2023-05-01T07:25:44;101075.16;;;12.84;68.16
71504;BME280;59323;50.874;7.028;2023-05-01T07:28:10;101075.28;;;12.94;67.52
71504;BME280;59323;50.874;7.028;2023-05-01T07:30:35;101083.19;;;13.03;66.58
71504;BME280;59323;50.874;7.028;2023-05-01T07:33:07;101085.59;;;13.08;66.47
71504;BME280;59323;50.874;7.028;2023-05-01T07:35:32;101086.41;;;13.12;65.35
71504;BME280;59323;50.874;7.028;2023-05-01T07:37:57;101083.38;;;13.17;64.51
71504;BME280;59323;50.874;7.028;2023-05-01T07:40:23;101080.31;;;13.22;64.20
71504;BME280;59323;50.874;7.028;2023-05-01T07:42:48;101078.41;;;13.26;64.93
71504;BME280;59323;50.874;7.028;2023-05-01T07:45:13;101082.75;;;13.31;64.48
71504;BME280;59323;50.874;7.028;2023-05-01T07:47:39;101080.44;;;13.33;64.65
71504;BME280;59323;50.874;7.028;2023-05-01T07:50:08;101073.06;;;13.37;64.02
71504;BME280;59323;50.874;7.028;2023-05-01T07:52:34;101078.16;;;13.39;65.42
71504;BME280;59323;50.874;7.028;2023-05-01T07:54:59;101072.69;;;13.39;64.32
71504;BME280;59323;50.874;7.028;2023-05-01T07:57:24;101078.19;;;13.42;63.80
71504;BME280;59323;50.874;7.028;2023-05-01T07:59:56;101076.63;;;13.41;64.02
71504;BME280;59323;50.874;7.028;2023-05-01T08:02:21;101075.94;;;13.51;63.28
71504;BME280;59323;50.874;7.028;2023-05-01T08:04:47;101070.09;;;13.53;63.78
71504;BME280;59323;50.874;7.028;2023-05-01T08:07:15;101071.25;;;13.52;63.97
71504;BME280;59323;50.874;7.028;2023-05-01T08:09:41;101072.06;;;13.56;62.86
71504;BME280;59323;50.874;7.028;2023-05-01T08:12:06;101079.91;;;13.61;63.79
71504;BME280;59323;50.874;7.028;2023-05-01T08:14:32;101072.53;;;13.65;63.26
71504;BME280;59323;50.874;7.028;2023-05-01T08:16:57;101072.25;;;13.74;63.72
71504;BME280;59323;50.874;7.028;2023-05-01T08:19:23;101080.13;;;13.82;63.28
71504;BME280;59323;50.874;7.028;2023-05-01T08:21:49;101081.34;;;13.88;62.98
71504;BME280;59323;50.874;7.028;2023-05-01T08:24:14;101074.75;;;13.93;63.68
71504;BME280;59323;50.874;7.028;2023-05-01T08:26:39;101075.59;;;14.01;63.03
71504;BME280;59323;50.874;7.028;2023-05-01T08:29:05;101069.41;;;14.11;62.09
71504;BME280;59323;50.874;7.028;2023-05-01T08:31:30;101071.78;;;14.16;62.42
71504;BME280;59323;50.874;7.028;2023-05-01T08:33:56;101076.53;;;14.26;64.00
71504;BME280;59323;50.874;7.028;2023-05-01T08:36:21;101071.97;;;14.41;64.09
71504;BME280;59323;50.874;7.028;2023-05-01T08:38:47;101073.63;;;14.52;62.46
71504;BME280;59323;50.874;7.028;2023-05-01T08:41:19;101067.03;;;14.61;61.80
71504;BME280;59323;50.874;7.028;2023-05-01T08:43:45;101066.25;;;14.60;60.08
71504;BME280;59323;50.874;7.028;2023-05-01T08:46:11;101075.66;;;14.70;60.45
71504;BME280;59323;50.874;7.028;2023-05-01T08:48:39;101068.28;;;14.77;61.50
71504;BME280;59323;50.874;7.028;2023-05-01T08:51:09;101074.56;;;14.88;61.39
71504;BME280;59323;50.874;7.028;2023-05-01T08:53:36;101076.97;;;14.97;59.42
71504;BME280;59323;50.874;7.028;2023-05-01T08:56:05;101059.81;;;15.11;59.75
71504;BME280;59323;50.874;7.028;2023-05-01T08:58:32;101066.88;;;15.19;58.77
71504;BME280;59323;50.874;7.028;2023-05-01T09:01:00;101060.25;;;15.31;59.94
71504;BME280;59323;50.874;7.028;2023-05-01T09:03:29;101063.78;;;15.35;57.79
71504;BME280;59323;50.874;7.028;2023-05-01T09:05:56;101072.00;;;15.38;57.95
71504;BME280;59323;50.874;7.028;2023-05-01T09:08:21;101059.50;;;15.48;58.62
71504;BME280;59323;50.874;7.028;2023-05-01T09:10:47;101063.03;;;15.52;57.70
71504;BME280;59323;50.874;7.028;2023-05-01T09:13:13;101057.97;;;15.58;56.70
71504;BME280;59323;50.874;7.028;2023-05-01T09:15:38;101059.13;;;15.60;55.85
71504;BME280;59323;50.874;7.028;2023-05-01T09:18:04;101055.59;;;15.56;56.23
71504;BME280;59323;50.874;7.028;2023-05-01T09:20:30;101063.44;;;15.58;57.83
71504;BME280;59323;50.874;7.028;2023-05-01T09:22:56;101057.53;;;15.55;56.55
71504;BME280;59323;50.874;7.028;2023-05-01T09:25:21;101064.22;;;15.58;56.66
71504;BME280;59323;50.874;7.028;2023-05-01T09:27:47;101058.75;;;15.58;57.94
71504;BME280;59323;50.874;7.028;2023-05-01T09:30:35;101062.31;;;15.69;56.51
71504;BME280;59323;50.874;7.028;2023-05-01T09:33:09;101064.66;;;15.74;57.53
71504;BME280;59323;50.874;7.028;2023-05-01T09:38:17;101050.94;;;15.89;56.58
71504;BME280;59323;50.874;7.028;2023-05-01T09:40:44;101057.22;;;15.93;54.28
71504;BME280;59323;50.874;7.028;2023-05-01T09:43:09;101060.72;;;15.97;55.20
71504;BME280;59323;50.874;7.028;2023-05-01T09:45:34;101060.34;;;15.95;54.78
71504;BME280;59323;50.874;7.028;2023-05-01T09:48:08;101055.63;;;15.95;54.75
71504;BME280;59323;50.874;7.028;2023-05-01T09:50:37;101059.53;;;16.05;56.64
71504;BME280;59323;50.874;7.028;2023-05-01T09:53:05;101063.06;;;16.16;56.40
71504;BME280;59323;50.874;7.028;2023-05-01T09:55:31;101059.94;;;16.28;55.96
71504;BME280;59323;50.874;7.028;2023-05-01T09:57:57;101055.59;;;16.41;56.80
71504;BME280;59323;50.874;7.028;2023-05-01T10:00:25;101055.94;;;16.54;56.59
71504;BME280;59323;50.874;7.028;2023-05-01T10:02:51;101047.66;;;16.65;56.89
71504;BME280;59323;50.874;7.028;2023-05-01T10:05:18;101050.78;;;16.74;55.57
71504;BME280;59323;50.874;7.028;2023-05-01T10:08:00;101050.34;;;16.86;53.27
71504;BME280;59323;50.874;7.028;2023-05-01T10:10:27;101046.44;;;16.84;54.19
71504;BME280;59323;50.874;7.028;2023-05-01T10:12:53;101052.31;;;16.86;56.21
71504;BME280;59323;50.874;7.028;2023-05-01T10:15:19;101042.09;;;16.93;55.08
71504;BME280;59323;50.874;7.028;2023-05-01T10:17:44;101049.53;;;16.96;54.54
71504;BME280;59323;50.874;7.028;2023-05-01T10:20:11;101050.25;;;17.07;54.75
71504;BME280;59323;50.874;7.028;2023-05-01T10:22:37;101054.13;;;17.17;54.12
71504;BME280;59323;50.874;7.028;2023-05-01T10:25:07;101047.34;;;17.32;54.28
71504;BME280;59323;50.874;7.028;2023-05-01T10:27:33;101043.28;;;17.55;52.33
71504;BME280;59323;50.874;7.028;2023-05-01T10:30:01;101040.31;;;17.87;51.70
71504;BME280;59323;50.874;7.028;2023-05-01T10:32:29;101042.53;;;18.02;49.50
71504;BME280;59323;50.874;7.028;2023-05-01T10:35:01;101043.97;;;18.14;49.05
71504;BME280;59323;50.874;7.028;2023-05-01T10:37:37;101036.06;;;18.20;50.02
71504;BME280;59323;50.874;7.028;2023-05-01T10:40:42;101046.09;;;18.41;50.38
71504;BME280;59323;50.874;7.028;2023-05-01T10:43:20;101037.66;;;18.55;50.73
71504;BME280;59323;50.874;7.028;2023-05-01T10:45:51;101025.72;;;18.68;50.86
71504;BME280;59323;50.874;7.028;2023-05-01T10:51:07;101027.69;;;18.68;47.71
71504;BME280;59323;50.874;7.028;2023-05-01T10:53:38;101024.63;;;18.62;48.65
71504;BME280;59323;50.874;7.028;2023-05-01T10:56:04;101016.06;;;18.53;47.99
71504;BME280;59323;50.874;7.028;2023-05-01T11:04:00;101002.09;;;18.37;47.19
71504;BME280;59323;50.874;7.028;2023-05-01T11:06:26;101004.50;;;18.31;48.17
71504;BME280;59323;50.874;7.028;2023-05-01T11:08:52;101005.00;;;18.19;48.54
71504;BME280;59323;50.874;7.028;2023-05-01T11:18:59;101008.22;;;18.52;50.09
71504;BME280;59323;50.874;7.028;2023-05-01T11:21:29;101012.09;;;18.54;46.88
71504;BME280;59323;50.874;7.028;2023-05-01T11:23:54;101004.94;;;18.64;47.41
71504;BME280;59323;50.874;7.028;2023-05-01T11:26:21;101005.47;;;18.86;48.24
71504;BME280;59323;50.874;7.028;2023-05-01T11:28:47;101008.78;;;19.00;47.04
71504;BME280;59323;50.874;7.028;2023-05-01T11:31:17;101004.69;;;19.12;47.32
71504;BME280;59323;50.874;7.028;2023-05-01T11:33:43;101007.16;;;19.30;47.37
71504;BME280;59323;50.874;7.028;2023-05-01T11:36:08;101007.25;;;19.53;45.93
71504;BME280;59323;50.874;7.028;2023-05-01T11:38:34;101002.22;;;19.72;43.81
71504;BME280;59323;50.874;7.028;2023-05-01T11:41:00;101005.56;;;19.83;45.73
71504;BME280;59323;50.874;7.028;2023-05-01T11:43:26;100998.84;;;19.84;46.86
71504;BME280;59323;50.874;7.028;2023-05-01T11:45:52;100999.13;;;19.89;45.16
71504;BME280;59323;50.874;7.028;2023-05-01T11:48:27;100996.66;;;19.95;44.54
71504;BME280;59323;50.874;7.028;2023-05-01T11:50:52;100988.25;;;20.02;45.44
71504;BME280;59323;50.874;7.028;2023-05-01T11:53:18;100993.47;;;20.20;45.56
71504;BME280;59323;50.874;7.028;2023-05-01T11:55:44;100992.75;;;20.16;44.02
71504;BME280;59323;50.874;7.028;2023-05-01T11:58:10;100989.31;;;20.08;42.96
71504;BME280;59323;50.874;7.028;2023-05-01T12:00:40;100991.59;;;20.13;44.24
71504;BME280;59323;50.874;7.028;2023-05-01T12:03:11;100980.56;;;20.13;43.72
71504;BME280;59323;50.874;7.028;2023-05-01T12:05:41;100980.91;;;20.15;42.87
71504;BME280;59323;50.874;7.028;2023-05-01T12:08:17;100979.94;;;20.25;44.23
71504;BME280;59323;50.874;7.028;2023-05-01T12:10:43;100970.84;;;20.48;43.75
71504;BME280;59323;50.874;7.028;2023-05-01T12:13:11;100964.06;;;20.69;43.70
71504;BME280;59323;50.874;7.028;2023-05-01T12:15:41;100971.34;;;20.79;42.33
71504;BME280;59323;50.874;7.028;2023-05-01T12:18:07;100977.19;;;21.01;42.89
71504;BME280;59323;50.874;7.028;2023-05-01T12:20:39;100968.56;;;21.15;40.68
71504;BME280;59323;50.874;7.028;2023-05-01T12:23:07;100966.31;;;21.10;39.21
71504;BME280;59323;50.874;7.028;2023-05-01T12:25:34;100974.28;;;21.25;40.21
71504;BME280;59323;50.874;7.028;2023-05-01T12:28:07;100979.97;;;21.17;39.51
71504;BME280;59323;50.874;7.028;2023-05-01T12:30:33;100965.66;;;21.23;38.58
71504;BME280;59323;50.874;7.028;2023-05-01T12:32:59;100965.09;;;21.11;38.23
71504;BME280;59323;50.874;7.028;2023-05-01T12:35:31;100966.38;;;20.91;41.05
71504;BME280;59323;50.874;7.028;2023-05-01T12:37:57;100962.72;;;20.77;42.10
71504;BME280;59323;50.874;7.028;2023-05-01T12:40:22;100962.66;;;20.81;40.52
71504;BME280;59323;50.874;7.028;2023-05-01T12:42:55;100955.34;;;20.71;39.54
71504;BME280;59323;50.874;7.028;2023-05-01T12:45:22;100959.69;;;20.72;39.79
71504;BME280;59323;50.874;7.028;2023-05-01T12:47:48;100961.22;;;20.73;39.79
71504;BME280;59323;50.874;7.028;2023-05-01T12:50:13;100959.16;;;20.77;38.30
71504;BME280;59323;50.874;7.028;2023-05-01T12:52:40;100960.44;;;20.72;40.82
71504;BME280;59323;50.874;7.028;2023-05-01T12:55:05;100966.56;;;20.64;39.27
71504;BME280;59323;50.874;7.028;2023-05-01T12:57:33;100947.16;;;20.67;40.33
71504;BME280;59323;50.874;7.028;2023-05-01T13:00:02;100959.91;;;20.81;38.27
71504;BME280;59323;50.874;7.028;2023-05-01T13:02:32;100948.91;;;20.77;39.87
71504;BME280;59323;50.874;7.028;2023-05-01T13:05:05;100955.06;;;20.85;37.56
71504;BME280;59323;50.874;7.028;2023-05-01T13:07:30;100947.91;;;21.04;36.54
71504;BME280;59323;50.874;7.028;2023-05-01T13:09:59;100947.66;;;20.98;37.46
71504;BME280;59323;50.874;7.028;2023-05-01T13:12:29;100947.16;;;20.67;38.37
71504;BME280;59323;50.874;7.028;2023-05-01T13:14:55;100946.25;;;20.54;39.13
71504;BME280;59323;50.874;7.028;2023-05-01T13:17:31;100943.50;;;20.54;39.30